Pendleton, OR (97801)

02:29 PDT le 26 octobre 2014 (GMT -0700)
Sun Ridge Estates | Change Station
CLOSE
Current Station
Stations météorologiques personnelles
Location: Pendleton, OR
Altitude: 1210 ft
Stations météo à proximité
Avis météorologiques actifs: Wind Advisory

Alt. 1210 ft 45.65 °N, 118.79 °W | Updated 8 minutes ago

Partiellement nuageux
Partiellement nuageux
54.1 ° F
Paraît 54.1 ° F
N
6.0
Vent Variable Vent de Ouest
Gusts 10.0 mph

Aujourd'hui
Haut(e) -- | Bas -- ° F
--% Risque de précip.
Hier
Haut(e) -- | Bas -- ° F
Precip. -- pouce
7:26 AM 5:50 PM
Lune montante, 7% visible
Pression 29.88 pouce
Visibilité 10.0 Miles terrestres
Nuages Ciel dégagé
Point de rosée 39 ° F
Humidité 57%
Précipitations 0.00 pouce
Profondeur de la couche neigeuse Non disponible.
UV 0 sur 12
Pollen 1.70 sur 12
Qualité de l'air Non disponible.
Flu Activity Sporadic
METAR KPDT 260853Z AUTO 26007KT 10SM CLR 11/03 A2990 RMK AO2 SLP118 T01060033 51041

More Conditions Fewer Conditions

Pression 29.88 pouce
Visibilité 10.0 Miles terrestres
Nuages Ciel dégagé
Point de rosée 39 ° F
Humidité 57%
Précipitations 0.00 pouce
Profondeur de la couche neigeuse Non disponible.
UV 0 sur 12
Pollen 1.70 sur 12
Qualité de l'air Non disponible.
Flu Activity Sporadic
METAR KPDT 260853Z AUTO 26007KT 10SM CLR 11/03 A2990 RMK AO2 SLP118 T01060033 51041

More Conditions Fewer Conditions

10-Day Weather Forecast

Almanac

Astronomie

Oct. 26, 2014 Lever Coucher
Temps réel 07:26 PDT 17:50 PDT
Crépuscule civil 06:56 PDT 18:21 PDT
Crépuscule nautique 06:21 PDT 18:56 PDT
Crépuscule astronomique 05:46 PDT 19:30 PDT
Lune 10:14 PDT 20:00 PDT
Durée de lumière visible 11h 25m
Longueur du jour
10h 24m
Tomorrow will be 2m 57s shorter.
Lune montante, 7% of the Moon is Illuminated
Aujourd'hui
Lune montante
Oct 30
Premier quartier
Nov 6
Pleine lune
Nov 14
Dernier quartier
Nov 22
Nouveau

Extrêmes aujourd'hui

State Highs State Lows

Community

WunderPhotos

Upload Photos

1,765,130 Photos téléchargées !

Nearby

Épaisseur de neige

Station Depth Altitude
Emigrant Springs 2 in 3925 ft
Bowman Springs 0 in 4580 ft
Lucky Strike 2 in 5050 ft
High Ridge 0 in 4980 ft
County Line 0 in 4800 ft

Activité sismique

Ville Distance Mag. Time & Date
No recent earthquake activity has been reported nearby.
Minimum magnitude displayed is 2.5.

Températures des eaux côtières

Lieu Température
Aucun rapport de station

Stations météo à proximité